Weather observations for the past three days for
Pella, Pella Municipal Airport
Metric (Imperial)
Date Time (cdt) Wind (kph) Vis. (km) Weather Sky Cond. Temperature (ºC) Relative Humidity Wind Chill (°C) Heat Index (°C) Pressure Precipitation (cm)
Air Dwpt 6 hour altimeter (cm) sea level (mb) 1 hr 3 hr 6 hr
Max. Min.
31 11:55 W 7 16.09 Fair CLR 30.1 21.3 59% 33 76 0.0
31 11:35 SW 7 16.09 Fair CLR 29.8 21.2 60% 32 76 0.0
31 11:15 W 11 16.09 Fair CLR 29 20.2 59% 31 75.97 0.0
31 10:55 W 17 16.09 Fair CLR 29.4 20.2 58% 31 76 0.0
31 10:35 W 15 16.09 Fair CLR 29 20.3 59% 31 76 0.0
31 10:15 SW 20 G 30 16.09 Fair CLR 28.6 19.7 59% 30 75.97 0.0
31 09:55 W 17 16.09 Fair CLR 28.4 19.9 60% 30 75.97 0.0
31 09:35 SW 19 16.09 Fair CLR 28 19.5 60% 29 75.95 0.0
31 09:15 SW 15 16.09 Fair CLR 27.4 19.2 61% 29 75.95 0.0
31 08:55 SW 19 G 30 16.09 Fair CLR 27.1 19.1 62% 28 75.95 0.0
31 08:35 SW 15 16.09 Fair CLR 26.1 18.7 64% 27 75.92 0.0
31 08:15 SW 19 16.09 Fair CLR 26.2 18.6 63% 27 75.92 0.0
31 07:55 SW 17 16.09 Fair CLR 25.6 18.4 65% 27 75.9 0.0
31 07:35 S 15 16.09 Fair CLR 24.9 18.2 66% 26 75.9 0.0
31 07:15 S 13 16.09 Fair CLR 24.6 18.1 67% 26 75.87 0.0
31 06:55 S 13 16.09 Fair CLR 24.5 18 26.1 24.5 67% 25 75.87 0.0
31 06:35 S 13 16.09 Fair CLR 24.7 17.9 66% 26 75.87 0.0
31 06:15 SW 13 16.09 Fair CLR 25.1 18 65% 26 75.87 0.0
31 05:55 S 13 16.09 Fair CLR 25.2 18 64% 26 75.84 0.0
31 05:35 S 13 16.09 Fair CLR 25.2 18 64% 26 75.84 0.0
31 05:15 S 13 16.09 Fair CLR 25 18.1 66% 26 75.82 0.0
31 04:55 S 11 16.09 Fair CLR 25 18.2 66% 26 75.84 0.0
31 04:35 S 9 16.09 Fair CLR 25.4 18.3 65% 26 75.84 0.0
31 04:15 S 9 16.09 Fair CLR 25.9 18.3 63% 27 75.84 0.0
31 03:55 S 15 16.09 Fair CLR 25.6 18.5 65% 27 75.84 0.0
31 03:35 S 13 16.09 Fair CLR 25.7 18.8 66% 27 75.84 0.0
31 03:15 S 19 16.09 Fair CLR 25.8 18.9 66% 27 75.84 0.0
31 02:55 S 13 16.09 Fair CLR 25.3 19.1 69% 26 75.84 0.0
31 02:35 S 13 16.09 Fair CLR 25.1 19.3 70% 26 75.84 0.0
31 02:15 S 11 16.09 Fair CLR 25.2 19.5 71% 26 75.84 0.0
31 01:55 S 13 16.09 Fair CLR 25.4 19.6 70% 26 75.87 0.0
31 01:35 S 15 16.09 Fair CLR 25.5 19.7 70% 27 75.87 0.0
31 01:15 S 13 16.09 Fair CLR 25.5 19.8 71% 27 75.87 0.0
31 00:55 S 11 16.09 Fair CLR 25.2 20 28.5 25.1 73% 26 75.87 0.0
31 00:35 SE 11 16.09 Fair CLR 25.2 20.2 74% 26 75.87 0.0
31 00:15 SE 11 16.09 Fair CLR 25.2 20.4 75% 26 75.84 0.0
30 23:55 SE 11 16.09 Fair CLR 25.6 20.5 73% 27 75.84 0.0
30 23:35 SE 17 16.09 Fair CLR 26 20.6 72% 27 75.84 0.0
30 23:15 SE 15 16.09 Fair CLR 26 20.7 73% 27 75.84 0.0
30 22:35 SE 13 16.09 Fair CLR 26 21 74% 27 75.87 0.0
30 22:15 SE 11 16.09 Fair CLR 26.4 21.6 75% 28 75.87 0.0
30 21:55 SE 11 16.09 Fair CLR 26.7 21.8 75% 29 75.87 0.0
30 21:35 SE 11 16.09 Fair CLR 27 22 74% 29 75.87 0.0
30 21:15 SE 11 16.09 Fair CLR 27.3 22.1 73% 30 75.87 0.0
30 20:55 SE 13 16.09 Fair CLR 27.6 22.1 72% 30 75.87 0.0
30 20:35 SE 17 16.09 Fair CLR 27.8 22.3 72% 31 75.84 0.0
30 20:15 SE 13 16.09 Fair CLR 27.6 22.7 75% 30 75.84 0.0
30 19:55 SE 13 16.09 Fair CLR 27.8 22.9 75% 31 75.82 0.0
30 19:35 SE 13 16.09 Fair CLR 27.9 23.2 76% 31 75.82 0.0
30 19:15 SE 13 16.09 Fair CLR 28 23.8 78% 32 75.82 0.0
30 18:55 SE 15 16.09 Fair CLR 28.5 23.8 29.4 25.5 76% 33 75.82 0.0
30 18:35 SE 13 16.09 Fair CLR 28.8 23.8 74% 33 75.82 0.0
30 18:15 SE 13 16.09 Fair CLR 29 23.8 74% 33 75.82 0.0
30 17:55 SE 15 16.09 Fair CLR 29 23.4 72% 33 75.82 0.0
30 17:35 SE 15 16.09 Fair CLR 29 23.2 71% 33 75.82 0.0
30 17:15 SE 11 16.09 Fair CLR 28.4 22.8 72% 32 75.84 0.0
30 16:55 SE 15 16.09 Fair CLR 28.8 22.9 70% 32 75.82 0.0
30 16:35 SE 13 16.09 Fair CLR 28.3 22.5 71% 31 75.84 0.0
30 16:15 SE 15 16.09 Fair CLR 27.6 22.3 73% 30 75.84 0.0
30 15:55 SE 13 16.09 Fair CLR 27.7 22.2 72% 30 75.87 0.0
30 15:35 SE 17 16.09 Fair CLR 26.9 21.6 73% 29 75.87 0.0
30 15:15 SE 11 16.09 Fair CLR 26.6 21.4 73% 28 75.9 0.0
30 14:55 SE 19 16.09 Fair CLR 26.5 21 72% 28 75.9 0.0
30 14:35 SE 15 16.09 Partly Cloudy SCT120 26.5 21 72% 28 75.92 0.0
30 14:15 SE 9 16.09 Partly Cloudy SCT120 26.4 20.9 72% 28 75.95 0.0
30 13:55 SE 13 16.09 Fair CLR 26.4 20.7 71% 28 75.95 0.0
30 13:35 S 13 16.09 Partly Cloudy SCT120 26.1 20.8 73% 28 75.95 0.0
30 13:15 SE 13 16.09 Fair CLR 25.6 20.8 75% 27 75.92 0.0
30 12:55 S 9 16.09 Partly Cloudy SCT120 25.7 21 26.1 23.2 75% 27 75.95 0.0
30 12:35 SE 11 16.09 Partly Cloudy SCT120 25.5 21.5 79% 27 75.97 0.0
30 12:15 SW 7 16.09 Partly Cloudy SCT065 SCT100 SCT120 25.6 21.3 77% 27 75.95 0.0
30 11:55 SW 7 16.09 Light Rain SCT046 SCT065 BKN100 24.9 20.8 78% 26 75.95 0.0
30 11:35 W 7 16.09 Overcast SCT044 SCT080 OVC120 24.1 20.9 82% 24 75.97 0.0
30 11:15 W 11 16.09 Rain SCT045 SCT070 BKN095 24.3 20.2 78% 25 75.95 0.0
30 10:55 W 13 16.09 Partly Cloudy SCT120 24.5 19.8 75% 25 75.95 0.0
30 10:35 SW 13 16.09 Fair CLR 24.4 19.7 75% 25 75.92 0.0
30 10:15 SW 15 16.09 Partly Cloudy SCT100 24.1 19.2 74% 25 75.9 0.0
30 09:55 S 9 16.09 Light Rain SCT049 SCT070 OVC100 23.4 18.9 76% 75.87 0.0
30 09:35 SW 20 16.09 Light Rain SCT060 SCT080 OVC100 23.5 18.8 75% 75.9 0.0
30 09:15 SW 20 G 28 16.09 Light Rain SCT065 SCT075 BKN110 24.8 18.2 67% 26 75.92 0.0
30 08:55 SW 20 G 33 16.09 Mostly Cloudy BKN110 25.9 18 62% 27 75.92 0.0
30 08:35 S 20 16.09 Partly Cloudy SCT110 25.3 17.7 63% 26 75.92 0.0
30 08:15 S 15 16.09 Partly Cloudy SCT110 25.3 17.6 62% 26 75.9 0.0
30 07:55 S 15 16.09 Fair CLR 25.2 17.1 61% 26 75.9 0.0
30 07:35 SW 15 16.09 Partly Cloudy SCT110 24.9 17 62% 26 75.92 0.0
30 07:15 S 11 16.09 Partly Cloudy SCT110 25.2 16.9 60% 26 75.9 0.0
30 06:55 S 9 16.09 Mostly Cloudy BKN110 25.1 16.9 25.3 23.9 60% 26 75.87 0.0
30 06:35 S 11 16.09 Partly Cloudy SCT120 25 17 61% 26 75.87 0.0
30 06:15 S 15 16.09 Partly Cloudy SCT110 24.6 17.2 64% 26 75.9 0.0
30 05:55 S 11 16.09 Fair CLR 24.5 17.3 64% 26 75.9 0.0
30 05:35 S 13 16.09 Fair CLR 24.6 17.4 64% 26 75.9 0.0
30 05:15 S 11 16.09 Fair CLR 24.2 17.5 66% 25 75.9 0.0
30 04:55 S 13 16.09 Fair CLR 24.2 17.5 66% 25 75.9 0.0
30 04:35 S 11 16.09 Fair CLR 24.1 17.5 67% 25 75.9 0.0
30 04:15 S 15 16.09 Fair CLR 23.9 17.5 68% 25 75.9 0.0
30 03:55 S 11 16.09 Fair CLR 24.3 17.6 66% 25 75.9 0.0
30 03:35 S 9 16.09 Fair CLR 24.2 17.6 67% 25 75.9 0.0
30 03:15 S 13 16.09 Fair CLR 24.1 17.7 68% 25 75.9 0.0
30 02:55 S 13 16.09 Fair CLR 24.2 17.8 68% 25 75.87 0.0
30 02:35 S 15 16.09 Fair CLR 24.3 17.9 68% 25 75.9 0.0
30 02:15 S 17 16.09 Fair CLR 24.3 18.1 68% 25 75.9 0.0
30 01:55 S 15 G 28 16.09 Fair CLR 24.3 18.4 70% 25 75.9 0.0
30 01:35 S 13 16.09 Fair CLR 24.1 18.6 71% 25 75.92 0.0
30 01:15 S 15 16.09 Fair CLR 24.2 18.8 72% 25 75.92 0.0
30 00:55 S 11 16.09 Fair CLR 24.1 19 26.9 24.1 73% 25 75.92 0.0
30 00:35 SE 15 16.09 Fair CLR 24.4 19.1 72% 25 75.92 0.0
30 00:15 S 17 16.09 Fair CLR 24.5 19.3 73% 25 75.92 0.0
29 23:55 S 17 G 26 16.09 Fair CLR 24.7 19.4 72% 26 75.92 0.0
29 23:35 S 17 G 28 16.09 Fair CLR 24.7 19.5 73% 26 75.9 0.0
29 23:15 S 17 G 26 16.09 Fair CLR 24.7 19.6 73% 26 75.92 0.0
29 22:55 S 15 16.09 Fair CLR 24.7 19.6 73% 26 75.92 0.0
29 22:35 S 15 16.09 Fair CLR 24.8 19.7 73% 26 75.9 0.0
29 22:15 S 19 16.09 Fair CLR 25.1 19.8 73% 26 75.92 0.0
29 21:55 S 17 16.09 Fair CLR 25.3 19.9 72% 26 75.92 0.0
29 21:35 S 17 16.09 Fair CLR 25.5 20.1 72% 27 75.9 0.0
29 21:15 S 17 G 26 16.09 Fair CLR 25.6 20.3 73% 27 75.9 0.0
29 20:55 S 20 16.09 Fair CLR 25.7 20.4 73% 27 75.87 0.0
29 20:35 S 20 G 31 16.09 Fair CLR 25.9 20.6 73% 27 75.84 0.0
29 20:15 S 24 G 37 16.09 Fair CLR 26.2 20.7 72% 28 75.84 0.0
29 19:55 S 17 16.09 Fair CLR 26.3 20.8 72% 28 75.84 0.0
29 19:35 SE 20 G 30 16.09 Fair CLR 26.3 20.8 72% 28 75.84 0.0
29 19:15 SE 20 G 30 16.09 Fair CLR 26.6 20.7 70% 28 75.84 0.0
29 18:55 S 26 G 33 16.09 Fair CLR 26.8 21 28.3 20.5 71% 29 75.84 0.0
29 18:35 SE 13 16.09 Fair CLR 27 21.4 71% 29 75.87 0.0
29 18:15 S 20 G 31 16.09 Fair CLR 27.9 21.1 67% 30 75.87 0.0
29 17:55 S 19 16.09 Fair CLR 27.9 21.2 67% 30 75.9 0.0
29 17:35 S 22 G 30 16.09 Fair CLR 28.2 21 65% 30 75.9 0.0
29 17:15 S 22 G 31 16.09 Fair CLR 28.1 21.1 66% 30 75.92 0.0
29 16:55 S 24 G 33 16.09 Fair CLR 28 20.9 65% 30 75.92 0.0
29 16:35 S 22 G 35 16.09 Fair CLR 27.6 21.1 68% 30 75.92 0.0
29 16:15 SE 19 G 28 16.09 Fair CLR 26.5 21 72% 28 75.92 0.0
29 15:55 SE 19 G 35 16.09 Fair CLR 25.5 20.5 74% 27 75.95 0.0
29 15:35 SE 26 G 35 16.09 Fair CLR 24.7 19.9 75% 26 76 0.0
29 15:15 SE 22 G 39 16.09 Partly Cloudy SCT110 23.7 19.6 78% 76.02 0.0
29 14:55 SE 22 G 39 16.09 Mostly Cloudy BKN110 22.7 19 80% 76.07 0.0
29 14:35 SE 28 G 33 16.09 Overcast OVC110 21.8 18.6 82% 76.1 0.0
29 14:15 SE 22 16.09 Overcast OVC120 20.8 18.3 86% 76.12 0.0
29 13:55 E 17 16.09 Overcast SCT060 SCT070 OVC120 20.6 18.4 87% 76.17 0.0
29 13:35 SE 15 16.09 Overcast SCT055 SCT080 OVC120 20.7 18 85% 76.2 0.0
29 13:15 SE 11 16.09 Mostly Cloudy BKN120 20.9 18 84% 76.17 0.0
29 12:55 SE 15 16.09 Fair CLR 20.4 18 20.5 18.1 86% 76.15 0.0 0.05 0.2
29 12:35 SE 19 16.09 Partly Cloudy SCT032 SCT040 SCT075 19.7 17.8 89% 76.15 0.0 0.05
29 12:15 SE 19 16.09 Light Rain SCT030 BKN075 OVC100 18.7 17.5 93% 76.17 0.0 0.05
29 11:55 SE 17 11.27 Rain BKN110 18.1 17.3 95% 76.28 0.0 0.13
29 11:35 SE 15 11.27 Light Rain BKN110 18.1 17.4 96% 76.38 0.0 0.08
29 11:15 Calm 8.05 Rain Fog/Mist SCT055 OVC100 18.3 17.2 93% 76.45 0.0 0.05
29 10:55 E 6 8.05 Light Rain Fog/Mist SCT055 SCT070 OVC100 18.3 17 92% 76.45 0.0 0.03
29 10:35 N 11 16.09 Light Rain BKN090 BKN110 18.3 17.1 93% 76.48 0.0
29 10:15 N 11 16.09 Light Rain OVC090 18.7 16.9 89% 76.5 0.0
29 09:55 N 6 16.09 Light Rain SCT075 BKN100 BKN120 20.2 16.3 78% 76.38 0.0
29 09:35 SE 9 16.09 Fair CLR 20.3 16 76% 76.33 0.0
29 09:15 SE 11 16.09 Partly Cloudy SCT060 SCT075 SCT120 20 16 78% 76.3 0.0
29 08:55 SE 15 16.09 Fair CLR 20 15.9 77% 76.33 0.0
29 08:35 S 17 16.09 Fair CLR 19.8 15.9 78% 76.33 0.0
29 08:15 S 15 16.09 Fair CLR 19.4 15.8 80% 76.33 0.0
29 07:55 S 13 16.09 Fair CLR 19.3 15.7 80% 76.33 0.0
29 07:35 S 15 16.09 Fair CLR 19 15.7 81% 76.35 0.0
29 07:15 SE 11 16.09 Fair CLR 18.6 15.8 84% 76.35 0.0
29 06:55 S 9 16.09 Fair CLR 18.6 15.7 19.6 17.6 83% 76.35 0.0
29 06:35 SE 11 16.09 Fair CLR 18.4 15.7 84% 76.33 0.0
29 06:15 SE 11 16.09 Fair CLR 18.4 15.7 84% 76.3 0.0
29 05:55 SE 11 16.09 Fair CLR 18 15.7 87% 76.3 0.0
29 05:35 SE 11 16.09 Fair CLR 17.9 15.7 87% 76.33 0.0
29 05:15 SE 9 16.09 Fair CLR 17.6 15.7 89% 76.35 0.0
29 04:55 SE 7 16.09 Fair CLR 18 15.7 87% 76.38 0.0
29 04:35 S 11 16.09 Fair CLR 18.4 15.7 84% 76.33 0.0
29 04:15 SE 11 16.09 Fair CLR 18.3 15.9 86% 76.35 0.0
29 03:55 SE 11 16.09 Fair CLR 18.4 15.9 85% 76.35 0.0
29 03:35 SE 9 16.09 Fair CLR 18.5 15.9 85% 76.38 0.0
29 03:15 SE 11 16.09 Fair CLR 18.5 16 85% 76.38 0.0
29 02:55 SE 11 16.09 Fair CLR 18.7 16.1 85% 76.4 0.0
29 02:35 SE 9 16.09 Fair CLR 18.6 16.2 86% 76.4 0.0
29 02:15 SE 7 16.09 Fair CLR 18.5 16.3 87% 76.4 0.0
29 01:55 SE 9 16.09 Fair CLR 19 16.3 84% 76.38 0.0
29 01:35 S 9 16.09 Fair CLR 19.4 16.4 83% 76.4 0.0
29 01:15 SE 9 16.09 Fair CLR 19.6 16.5 82% 76.4 0.0
29 00:55 SE 7 16.09 Fair CLR 19.3 16.7 25.4 18.8 85% 76.4 0.0
29 00:35 SE 9 16.09 Fair CLR 19.6 16.8 84% 76.4 0.0
29 00:15 SE 6 16.09 Fair CLR 19 16.7 87% 76.4 0.0
28 23:55 SE 7 16.09 Fair CLR 19.5 17 86% 76.4 0.0
28 23:35 SE 7 16.09 Fair CLR 20 17.2 84% 76.4 0.0
28 23:15 SE 9 16.09 Fair CLR 20.4 17.5 84% 76.43 0.0
28 22:55 SE 7 16.09 Fair CLR 20.6 17.5 83% 76.4 0.0
28 22:35 SE 7 16.09 Fair CLR 20.2 17.6 85% 76.43 0.0
28 22:15 SE 7 16.09 Fair CLR 20.1 17.7 86% 76.43 0.0
28 21:55 SE 6 16.09 Fair CLR 20.4 17.8 85% 76.43 0.0
28 21:35 SE 7 16.09 Fair CLR 20.9 17.9 83% 76.43 0.0
28 21:15 SE 7 16.09 Fair CLR 21 18.2 84% 76.43 0.0
28 20:55 SE 9 16.09 Fair CLR 21.1 18.3 84% 76.4 0.0
28 20:35 SE 7 16.09 Fair CLR 21.7 18.4 82% 76.4 0.0
28 20:15 SE 7 16.09 Fair CLR 21.4 18.7 85% 76.4 0.0
28 19:55 SE 6 16.09 Fair CLR 22.6 18.8 79% 76.4 0.0
28 19:35 SE 6 16.09 Fair CLR 23.7 18.6 73% 76.4 0.0
28 19:15 SE 6 16.09 Fair CLR 24.9 17.9 65% 26 76.4 0.0
28 18:55 S 7 16.09 Fair CLR 25.5 18.2 29.2 25.4 64% 27 76.4 0.0
28 18:35 S 9 16.09 Fair CLR 26.7 17.6 57% 28 76.43 0.0
28 18:15 S 9 16.09 Fair CLR 27.5 17.1 53% 28 76.43 0.0
28 17:55 SW 11 16.09 Fair CLR 27.9 17.4 53% 29 76.45 0.0
28 17:35 S 7 16.09 Fair CLR 27.6 17.2 53% 28 76.43 0.0
28 17:15 SW 11 16.09 Fair CLR 27.7 16.7 51% 28 76.43 0.0
28 16:55 S 7 16.09 Fair CLR 28.3 16.7 49% 29 76.45 0.0
28 16:35 S 9 16.09 Partly Cloudy SCT050 28.4 17.1 50% 29 76.45 0.0
28 16:15 S 9 16.09 Fair CLR 28.2 17.3 52% 29 76.48 0.0
28 15:55 S 13 16.09 Partly Cloudy SCT055 28.6 17 49% 29 76.48 0.0
28 15:35 S 13 16.09 Fair CLR 28.6 16.8 49% 29 76.48 0.0
28 15:15 SW 6 16.09 Fair CLR 28.7 16.2 47% 29 76.5 0.0
28 14:55 SE 11 16.09 Fair CLR 28.6 16.4 48% 29 76.5 0.0
28 14:35 S 9 16.09 Fair CLR 28.5 16.6 49% 29 76.53 0.0
28 14:15 SW 15 16.09 Fair CLR 28 15 45% 28 76.53 0.0
28 13:55 S 11 16.09 Fair CLR 28.3 16.8 50% 29 76.53 0.0
28 13:35 SW 9 16.09 Fair CLR 28.2 16.3 48% 29 76.56 0.0
28 13:15 Calm 16.09 Fair CLR 27.7 16.3 50% 28 76.58 0.0
28 12:55 S 6 16.09 Fair CLR 27.4 16.6 27.9 14.1 52% 28 76.61 0.0
28 12:35 W 6 16.09 Fair CLR 27 15.3 49% 27 76.63 0.0
28 12:15 Calm 16.09 Fair CLR 27.1 14.1 45% 27 76.63 0.0
Date Time (cdt) Wind (kph) Vis. (km) Weather Sky Cond. Air Dwpt Max. Min. Relative Humidity Wind Chill (°C) Heat Index (°C) altimeter (cm) sea level (mb) 1 hr 3 hr 6 hr
6 hour
Temperature (ºC) Pressure Precipitation (cm)